Frederike Selmer — V7QY8 — position and weather

sailwx.info

Track history (hours):
 
Tides and Currents Weather Stations Pressure Air Temp Water Temp Dewpoint Dewpoint Depression Visibility Wind Speed Wind Dir Waves Ship Positions

Frederike Selmer

Last reported at 2017-Jun-10 04:55 UTC. Time now 2017-Jul-22 02:50 UTC.
Position N 01°15' E 104°03'.
Warning: this ship's position is 41 days out of date.

Length 188 m; draft 6.4 m.

Type: Cargo ship. MMSI: 538007012.

Date/timePositionNaut miles runAvg speedWind from/ knotsBaromVisibWave heightAir tempDewpointWater temp
2017-Jun-10 04:55N 01°15' E 104°03'511.0
2017-Jun-10 04:30N 01°15' E 103°58'3 1.2
2017-Jun-10 01:49N 01°17' E 103°56'0 0.0
2017-Jun-10 01:13N 01°17' E 103°56'0 0.0
2017-Jun-09 23:25N 01°17' E 103°56'0 0.1
2017-Jun-09 22:58N 01°17' E 103°56'0 0.0
2017-Jun-09 22:28N 01°17' E 103°56'0 0.0
2017-Jun-09 21:49N 01°17' E 103°56'0 0.0
2017-Jun-09 21:25N 01°17' E 103°56'0 0.0
2017-Jun-09 20:58N 01°17' E 103°56'0 0.0
2017-Jun-09 20:28N 01°17' E 103°56'0 0.0
2017-Jun-09 19:37N 01°17' E 103°56'0 0.0
2017-Jun-09 19:28N 01°17' E 103°56'0 0.0
2017-Jun-09 18:49N 01°17' E 103°56'0 0.0
2017-Jun-09 18:22N 01°17' E 103°56'0 0.0
2017-Jun-09 17:58N 01°17' E 103°56'0 0.1
2017-Jun-09 17:28N 01°17' E 103°56'0 0.1
2017-Jun-09 16:55N 01°17' E 103°56'0 0.0
2017-Jun-09 16:28N 01°17' E 103°56'0 0.1
2017-Jun-09 15:55N 01°17' E 103°56'1 2.0
2017-Jun-09 15:30N 01°16' E 103°56'2 3.4
2017-Jun-09 14:58N 01°15' E 103°57'3 6.8
2017-Jun-09 14:30N 01°13' E 103°55'9 8.4
2017-Jun-09 13:28N 01°09' E 103°47'4 7.7
2017-Jun-09 12:58N 01°06' E 103°44'4 8.1
2017-Jun-09 12:26N 01°04' E 103°41'4 9.3
2017-Jun-09 11:59N 01°04' E 103°37'510.1
2017-Jun-09 11:30N 01°06' E 103°33'510.0
2017-Jun-09 10:59N 01°09' E 103°28'510.2
2017-Jun-09 10:30N 01°11' E 103°24'6310.3
2017-Jun-09 04:27N 01°45' E 102°31'611.5
2017-Jun-09 03:56N 01°48' E 102°26'712.0
2017-Jun-09 03:19N 01°51' E 102°19'  
Track history (hours):
 
Tides and Currents Weather Stations Pressure Air Temp Water Temp Dewpoint Dewpoint Depression Visibility Wind Speed Wind Dir Waves Ship Positions

Frederike Selmer

Last reported at 2017-Jun-10 04:55 UTC. Time now 2017-Jul-22 02:50 UTC.
Position N 01°15' E 104°03'.
Warning: this ship's position is 41 days out of date.

Length 188 m; draft 6.4 m.

Type: Cargo ship. MMSI: 538007012.

Date/timePositionNaut miles runAvg speedWind from/ knotsBaromVisibWave heightAir tempDewpointWater temp
2017-Jun-10 04:55N 01°15' E 104°03'511.0
2017-Jun-10 04:30N 01°15' E 103°58'3 1.2
2017-Jun-10 01:49N 01°17' E 103°56'0 0.0
2017-Jun-10 01:13N 01°17' E 103°56'0 0.0
2017-Jun-09 23:25N 01°17' E 103°56'0 0.1
2017-Jun-09 22:58N 01°17' E 103°56'0 0.0
2017-Jun-09 22:28N 01°17' E 103°56'0 0.0
2017-Jun-09 21:49N 01°17' E 103°56'0 0.0
2017-Jun-09 21:25N 01°17' E 103°56'0 0.0
2017-Jun-09 20:58N 01°17' E 103°56'0 0.0
2017-Jun-09 20:28N 01°17' E 103°56'0 0.0
2017-Jun-09 19:37N 01°17' E 103°56'0 0.0
2017-Jun-09 19:28N 01°17' E 103°56'0 0.0
2017-Jun-09 18:49N 01°17' E 103°56'0 0.0
2017-Jun-09 18:22N 01°17' E 103°56'0 0.0
2017-Jun-09 17:58N 01°17' E 103°56'0 0.1
2017-Jun-09 17:28N 01°17' E 103°56'0 0.1
2017-Jun-09 16:55N 01°17' E 103°56'0 0.0
2017-Jun-09 16:28N 01°17' E 103°56'0 0.1
2017-Jun-09 15:55N 01°17' E 103°56'1 2.0
2017-Jun-09 15:30N 01°16' E 103°56'2 3.4
2017-Jun-09 14:58N 01°15' E 103°57'3 6.8
2017-Jun-09 14:30N 01°13' E 103°55'9 8.4
2017-Jun-09 13:28N 01°09' E 103°47'4 7.7
2017-Jun-09 12:58N 01°06' E 103°44'4 8.1
2017-Jun-09 12:26N 01°04' E 103°41'4 9.3
2017-Jun-09 11:59N 01°04' E 103°37'510.1
2017-Jun-09 11:30N 01°06' E 103°33'510.0
2017-Jun-09 10:59N 01°09' E 103°28'510.2
2017-Jun-09 10:30N 01°11' E 103°24'6310.3
2017-Jun-09 04:27N 01°45' E 102°31'611.5
2017-Jun-09 03:56N 01°48' E 102°26'712.0
2017-Jun-09 03:19N 01°51' E 102°19'  

Dump ship's entire track history